sensor_id;sensor_type;location;lat;lon;timestamp;P1;durP1;ratioP1;P2;durP2;ratioP2
16199;SDS011;8207;52.494;4.654;2023-02-11T00:00:13;20.93;;;8.37;;
16199;SDS011;8207;52.494;4.654;2023-02-11T00:02:41;23.13;;;8.40;;
16199;SDS011;8207;52.494;4.654;2023-02-11T00:05:08;24.60;;;8.50;;
16199;SDS011;8207;52.494;4.654;2023-02-11T00:07:36;18.30;;;7.57;;
16199;SDS011;8207;52.494;4.654;2023-02-11T00:10:04;20.73;;;8.67;;
16199;SDS011;8207;52.494;4.654;2023-02-11T00:12:32;27.87;;;8.50;;
16199;SDS011;8207;52.494;4.654;2023-02-11T00:14:58;14.37;;;7.27;;
16199;SDS011;8207;52.494;4.654;2023-02-11T00:17:25;21.07;;;7.60;;
16199;SDS011;8207;52.494;4.654;2023-02-11T00:19:52;21.87;;;7.80;;
16199;SDS011;8207;52.494;4.654;2023-02-11T00:22:19;30.27;;;7.83;;
16199;SDS011;8207;52.494;4.654;2023-02-11T00:24:48;25.63;;;8.93;;
16199;SDS011;8207;52.494;4.654;2023-02-11T00:27:14;23.90;;;8.40;;
16199;SDS011;8207;52.494;4.654;2023-02-11T00:29:41;18.60;;;9.03;;
16199;SDS011;8207;52.494;4.654;2023-02-11T00:32:08;24.83;;;9.03;;
16199;SDS011;8207;52.494;4.654;2023-02-11T00:34:35;25.27;;;9.47;;
16199;SDS011;8207;52.494;4.654;2023-02-11T00:37:03;26.33;;;9.83;;
16199;SDS011;8207;52.494;4.654;2023-02-11T00:39:30;28.80;;;11.43;;
16199;SDS011;8207;52.494;4.654;2023-02-11T00:41:58;24.23;;;11.33;;
16199;SDS011;8207;52.494;4.654;2023-02-11T00:44:25;22.40;;;9.50;;
16199;SDS011;8207;52.494;4.654;2023-02-11T00:46:52;26.67;;;11.07;;
16199;SDS011;8207;52.494;4.654;2023-02-11T00:49:19;20.20;;;11.10;;
16199;SDS011;8207;52.494;4.654;2023-02-11T00:51:46;20.67;;;10.67;;
16199;SDS011;8207;52.494;4.654;2023-02-11T00:54:13;23.10;;;10.10;;
16199;SDS011;8207;52.494;4.654;2023-02-11T00:56:40;24.33;;;12.03;;
16199;SDS011;8207;52.494;4.654;2023-02-11T00:59:08;29.40;;;12.73;;
16199;SDS011;8207;52.494;4.654;2023-02-11T01:01:35;24.43;;;12.37;;
16199;SDS011;8207;52.494;4.654;2023-02-11T01:04:02;27.40;;;11.37;;
16199;SDS011;8207;52.494;4.654;2023-02-11T01:06:29;29.93;;;12.00;;
16199;SDS011;8207;52.494;4.654;2023-02-11T01:08:56;27.67;;;12.37;;
16199;SDS011;8207;52.494;4.654;2023-02-11T01:11:23;27.33;;;12.63;;
16199;SDS011;8207;52.494;4.654;2023-02-11T01:13:50;25.50;;;11.43;;
16199;SDS011;8207;52.494;4.654;2023-02-11T01:16:18;24.53;;;11.43;;
16199;SDS011;8207;52.494;4.654;2023-02-11T01:18:45;24.73;;;11.43;;
16199;SDS011;8207;52.494;4.654;2023-02-11T01:21:13;27.23;;;12.50;;
16199;SDS011;8207;52.494;4.654;2023-02-11T01:23:40;28.00;;;13.10;;
16199;SDS011;8207;52.494;4.654;2023-02-11T01:26:07;21.97;;;11.83;;
16199;SDS011;8207;52.494;4.654;2023-02-11T01:28:33;24.30;;;12.03;;
16199;SDS011;8207;52.494;4.654;2023-02-11T01:31:01;22.07;;;11.60;;
16199;SDS011;8207;52.494;4.654;2023-02-11T01:33:30;29.60;;;11.70;;
16199;SDS011;8207;52.494;4.654;2023-02-11T01:35:59;32.63;;;13.20;;
16199;SDS011;8207;52.494;4.654;2023-02-11T01:38:27;26.93;;;11.67;;
16199;SDS011;8207;52.494;4.654;2023-02-11T01:40:55;31.13;;;12.50;;
16199;SDS011;8207;52.494;4.654;2023-02-11T01:43:25;30.07;;;11.53;;
16199;SDS011;8207;52.494;4.654;2023-02-11T01:45:57;24.53;;;11.40;;
16199;SDS011;8207;52.494;4.654;2023-02-11T01:48:27;25.37;;;12.10;;
16199;SDS011;8207;52.494;4.654;2023-02-11T01:51:00;24.33;;;11.37;;
16199;SDS011;8207;52.494;4.654;2023-02-11T01:53:29;25.17;;;12.90;;
16199;SDS011;8207;52.494;4.654;2023-02-11T01:56:15;27.90;;;13.13;;
16199;SDS011;8207;52.494;4.654;2023-02-11T01:59:04;24.77;;;13.83;;
16199;SDS011;8207;52.494;4.654;2023-02-11T02:01:34;30.77;;;14.63;;
16199;SDS011;8207;52.494;4.654;2023-02-11T02:04:05;23.50;;;14.00;;
16199;SDS011;8207;52.494;4.654;2023-02-11T02:06:34;26.00;;;14.80;;
16199;SDS011;8207;52.494;4.654;2023-02-11T02:09:06;27.63;;;14.73;;
16199;SDS011;8207;52.494;4.654;2023-02-11T02:11:36;27.20;;;14.50;;
16199;SDS011;8207;52.494;4.654;2023-02-11T02:14:03;31.10;;;15.50;;
16199;SDS011;8207;52.494;4.654;2023-02-11T02:16:30;27.93;;;14.77;;
16199;SDS011;8207;52.494;4.654;2023-02-11T02:19:05;26.60;;;14.93;;
16199;SDS011;8207;52.494;4.654;2023-02-11T02:22:03;32.53;;;16.37;;
16199;SDS011;8207;52.494;4.654;2023-02-11T02:25:07;28.07;;;15.57;;
16199;SDS011;8207;52.494;4.654;2023-02-11T02:27:47;34.73;;;17.63;;
16199;SDS011;8207;52.494;4.654;2023-02-11T02:33:22;34.23;;;16.43;;
16199;SDS011;8207;52.494;4.654;2023-02-11T02:35:57;35.37;;;18.23;;
16199;SDS011;8207;52.494;4.654;2023-02-11T02:38:32;36.20;;;19.13;;
16199;SDS011;8207;52.494;4.654;2023-02-11T02:41:05;40.50;;;20.27;;
16199;SDS011;8207;52.494;4.654;2023-02-11T02:43:35;28.90;;;18.63;;
16199;SDS011;8207;52.494;4.654;2023-02-11T02:46:08;34.23;;;18.97;;
16199;SDS011;8207;52.494;4.654;2023-02-11T02:48:38;34.00;;;16.87;;
16199;SDS011;8207;52.494;4.654;2023-02-11T02:51:07;27.00;;;15.33;;
16199;SDS011;8207;52.494;4.654;2023-02-11T02:53:44;31.53;;;17.17;;
16199;SDS011;8207;52.494;4.654;2023-02-11T02:56:21;31.60;;;17.73;;
16199;SDS011;8207;52.494;4.654;2023-02-11T02:59:06;35.03;;;17.03;;
16199;SDS011;8207;52.494;4.654;2023-02-11T03:01:49;35.10;;;17.07;;
16199;SDS011;8207;52.494;4.654;2023-02-11T03:04:26;29.93;;;16.43;;
16199;SDS011;8207;52.494;4.654;2023-02-11T03:06:59;29.83;;;17.90;;
16199;SDS011;8207;52.494;4.654;2023-02-11T03:09:32;32.40;;;16.83;;
16199;SDS011;8207;52.494;4.654;2023-02-11T03:12:03;27.73;;;16.77;;
16199;SDS011;8207;52.494;4.654;2023-02-11T03:14:31;28.50;;;17.00;;
16199;SDS011;8207;52.494;4.654;2023-02-11T03:17:01;26.53;;;17.13;;
16199;SDS011;8207;52.494;4.654;2023-02-11T03:19:33;33.80;;;18.37;;
16199;SDS011;8207;52.494;4.654;2023-02-11T03:22:04;38.77;;;18.20;;
16199;SDS011;8207;52.494;4.654;2023-02-11T03:24:36;29.27;;;16.57;;
16199;SDS011;8207;52.494;4.654;2023-02-11T03:27:06;32.23;;;17.53;;
16199;SDS011;8207;52.494;4.654;2023-02-11T03:29:37;31.77;;;18.97;;
16199;SDS011;8207;52.494;4.654;2023-02-11T03:32:10;31.33;;;15.97;;
16199;SDS011;8207;52.494;4.654;2023-02-11T03:34:43;26.87;;;16.63;;
16199;SDS011;8207;52.494;4.654;2023-02-11T03:37:15;32.13;;;18.50;;
16199;SDS011;8207;52.494;4.654;2023-02-11T03:39:46;35.73;;;20.40;;
16199;SDS011;8207;52.494;4.654;2023-02-11T03:42:16;36.73;;;19.20;;
16199;SDS011;8207;52.494;4.654;2023-02-11T03:44:46;34.57;;;19.20;;
16199;SDS011;8207;52.494;4.654;2023-02-11T03:47:18;38.47;;;18.43;;
16199;SDS011;8207;52.494;4.654;2023-02-11T03:49:50;28.93;;;18.17;;
16199;SDS011;8207;52.494;4.654;2023-02-11T03:52:19;35.80;;;18.10;;
16199;SDS011;8207;52.494;4.654;2023-02-11T03:54:48;27.93;;;16.43;;
16199;SDS011;8207;52.494;4.654;2023-02-11T03:57:20;34.17;;;18.40;;
16199;SDS011;8207;52.494;4.654;2023-02-11T03:59:51;32.33;;;17.60;;
16199;SDS011;8207;52.494;4.654;2023-02-11T04:02:20;36.90;;;18.80;;
16199;SDS011;8207;52.494;4.654;2023-02-11T04:04:50;33.30;;;18.77;;
16199;SDS011;8207;52.494;4.654;2023-02-11T04:07:17;36.07;;;19.00;;
16199;SDS011;8207;52.494;4.654;2023-02-11T04:09:44;32.00;;;19.63;;
16199;SDS011;8207;52.494;4.654;2023-02-11T04:12:11;35.03;;;18.20;;
16199;SDS011;8207;52.494;4.654;2023-02-11T04:14:38;31.37;;;18.67;;
16199;SDS011;8207;52.494;4.654;2023-02-11T04:17:05;31.77;;;19.30;;
16199;SDS011;8207;52.494;4.654;2023-02-11T04:19:32;37.73;;;19.30;;
16199;SDS011;8207;52.494;4.654;2023-02-11T04:22:00;36.20;;;18.60;;
16199;SDS011;8207;52.494;4.654;2023-02-11T04:24:27;39.20;;;18.70;;
16199;SDS011;8207;52.494;4.654;2023-02-11T04:26:54;32.30;;;18.57;;
16199;SDS011;8207;52.494;4.654;2023-02-11T04:29:21;38.57;;;19.03;;
16199;SDS011;8207;52.494;4.654;2023-02-11T04:31:48;38.57;;;20.17;;
16199;SDS011;8207;52.494;4.654;2023-02-11T04:34:15;40.80;;;19.50;;
16199;SDS011;8207;52.494;4.654;2023-02-11T04:36:42;39.10;;;20.70;;
16199;SDS011;8207;52.494;4.654;2023-02-11T04:39:11;32.23;;;19.50;;
16199;SDS011;8207;52.494;4.654;2023-02-11T04:41:38;35.37;;;20.20;;
16199;SDS011;8207;52.494;4.654;2023-02-11T04:44:05;39.03;;;20.03;;
16199;SDS011;8207;52.494;4.654;2023-02-11T04:46:32;43.07;;;21.33;;
16199;SDS011;8207;52.494;4.654;2023-02-11T04:48:59;33.30;;;19.67;;
16199;SDS011;8207;52.494;4.654;2023-02-11T04:51:26;35.70;;;20.23;;
16199;SDS011;8207;52.494;4.654;2023-02-11T04:53:52;34.20;;;19.60;;
16199;SDS011;8207;52.494;4.654;2023-02-11T04:56:21;34.53;;;20.47;;
16199;SDS011;8207;52.494;4.654;2023-02-11T04:58:48;34.70;;;19.77;;
16199;SDS011;8207;52.494;4.654;2023-02-11T05:01:15;36.77;;;20.30;;
16199;SDS011;8207;52.494;4.654;2023-02-11T05:03:42;41.67;;;21.10;;
16199;SDS011;8207;52.494;4.654;2023-02-11T05:06:10;35.07;;;20.47;;
16199;SDS011;8207;52.494;4.654;2023-02-11T05:08:37;37.60;;;19.83;;
16199;SDS011;8207;52.494;4.654;2023-02-11T05:11:04;40.07;;;21.03;;
16199;SDS011;8207;52.494;4.654;2023-02-11T05:13:32;34.33;;;20.50;;
16199;SDS011;8207;52.494;4.654;2023-02-11T05:15:59;34.17;;;21.03;;
16199;SDS011;8207;52.494;4.654;2023-02-11T05:18:26;39.20;;;20.93;;
16199;SDS011;8207;52.494;4.654;2023-02-11T05:20:53;34.00;;;19.67;;
16199;SDS011;8207;52.494;4.654;2023-02-11T05:23:20;38.50;;;20.50;;
16199;SDS011;8207;52.494;4.654;2023-02-11T05:25:47;39.03;;;19.97;;
16199;SDS011;8207;52.494;4.654;2023-02-11T05:28:14;36.13;;;21.03;;
16199;SDS011;8207;52.494;4.654;2023-02-11T05:30:43;40.17;;;20.60;;
16199;SDS011;8207;52.494;4.654;2023-02-11T05:33:09;38.20;;;20.40;;
16199;SDS011;8207;52.494;4.654;2023-02-11T05:35:36;41.83;;;20.20;;
16199;SDS011;8207;52.494;4.654;2023-02-11T05:38:03;41.07;;;20.50;;
16199;SDS011;8207;52.494;4.654;2023-02-11T05:40:30;39.97;;;22.10;;
16199;SDS011;8207;52.494;4.654;2023-02-11T05:42:57;33.60;;;20.37;;
16199;SDS011;8207;52.494;4.654;2023-02-11T05:45:25;38.33;;;21.00;;
16199;SDS011;8207;52.494;4.654;2023-02-11T05:47:54;39.17;;;22.77;;
16199;SDS011;8207;52.494;4.654;2023-02-11T05:50:21;39.87;;;21.43;;
16199;SDS011;8207;52.494;4.654;2023-02-11T05:52:47;37.73;;;21.20;;
16199;SDS011;8207;52.494;4.654;2023-02-11T05:55:14;38.90;;;22.93;;
16199;SDS011;8207;52.494;4.654;2023-02-11T05:57:41;46.00;;;22.83;;
16199;SDS011;8207;52.494;4.654;2023-02-11T06:00:09;33.20;;;20.27;;
16199;SDS011;8207;52.494;4.654;2023-02-11T06:02:37;35.70;;;21.27;;
16199;SDS011;8207;52.494;4.654;2023-02-11T06:05:06;49.30;;;22.37;;
16199;SDS011;8207;52.494;4.654;2023-02-11T06:07:33;34.73;;;19.97;;
16199;SDS011;8207;52.494;4.654;2023-02-11T06:10:00;39.47;;;20.97;;
16199;SDS011;8207;52.494;4.654;2023-02-11T06:12:27;36.10;;;20.80;;
16199;SDS011;8207;52.494;4.654;2023-02-11T06:14:54;37.73;;;20.23;;
16199;SDS011;8207;52.494;4.654;2023-02-11T06:17:21;40.27;;;21.73;;
16199;SDS011;8207;52.494;4.654;2023-02-11T06:19:49;36.37;;;20.90;;
16199;SDS011;8207;52.494;4.654;2023-02-11T06:22:17;38.60;;;20.50;;
16199;SDS011;8207;52.494;4.654;2023-02-11T06:24:44;38.67;;;20.43;;
16199;SDS011;8207;52.494;4.654;2023-02-11T06:27:11;42.60;;;20.47;;
16199;SDS011;8207;52.494;4.654;2023-02-11T06:29:38;42.50;;;22.23;;
16199;SDS011;8207;52.494;4.654;2023-02-11T06:32:05;38.47;;;20.63;;
16199;SDS011;8207;52.494;4.654;2023-02-11T06:34:32;40.80;;;20.07;;
16199;SDS011;8207;52.494;4.654;2023-02-11T06:36:59;39.23;;;19.53;;
16199;SDS011;8207;52.494;4.654;2023-02-11T06:39:27;41.63;;;21.10;;
16199;SDS011;8207;52.494;4.654;2023-02-11T06:41:54;38.37;;;19.77;;
16199;SDS011;8207;52.494;4.654;2023-02-11T06:44:21;39.13;;;20.43;;
16199;SDS011;8207;52.494;4.654;2023-02-11T06:46:48;37.97;;;20.47;;
16199;SDS011;8207;52.494;4.654;2023-02-11T06:49:15;39.33;;;20.83;;
16199;SDS011;8207;52.494;4.654;2023-02-11T06:51:41;44.27;;;20.30;;
16199;SDS011;8207;52.494;4.654;2023-02-11T06:54:09;33.90;;;18.70;;
16199;SDS011;8207;52.494;4.654;2023-02-11T06:56:39;39.10;;;20.93;;
16199;SDS011;8207;52.494;4.654;2023-02-11T06:59:06;41.13;;;20.00;;
16199;SDS011;8207;52.494;4.654;2023-02-11T07:01:33;42.20;;;20.23;;
16199;SDS011;8207;52.494;4.654;2023-02-11T07:04:00;36.10;;;19.50;;
16199;SDS011;8207;52.494;4.654;2023-02-11T07:06:27;45.73;;;20.70;;
16199;SDS011;8207;52.494;4.654;2023-02-11T07:08:54;37.97;;;21.23;;
16199;SDS011;8207;52.494;4.654;2023-02-11T07:11:22;35.30;;;19.87;;
16199;SDS011;8207;52.494;4.654;2023-02-11T07:13:52;35.43;;;20.20;;
16199;SDS011;8207;52.494;4.654;2023-02-11T07:16:20;43.00;;;20.50;;
16199;SDS011;8207;52.494;4.654;2023-02-11T07:18:48;39.63;;;20.97;;
16199;SDS011;8207;52.494;4.654;2023-02-11T07:21:15;34.63;;;19.27;;
16199;SDS011;8207;52.494;4.654;2023-02-11T07:23:44;32.00;;;18.97;;
16199;SDS011;8207;52.494;4.654;2023-02-11T07:26:13;39.17;;;19.87;;
16199;SDS011;8207;52.494;4.654;2023-02-11T07:28:42;35.77;;;19.03;;
16199;SDS011;8207;52.494;4.654;2023-02-11T07:31:11;35.50;;;19.57;;
16199;SDS011;8207;52.494;4.654;2023-02-11T07:33:40;33.93;;;18.20;;
16199;SDS011;8207;52.494;4.654;2023-02-11T07:36:09;34.70;;;18.33;;
16199;SDS011;8207;52.494;4.654;2023-02-11T07:38:37;36.87;;;19.23;;
16199;SDS011;8207;52.494;4.654;2023-02-11T07:41:05;33.47;;;20.00;;
16199;SDS011;8207;52.494;4.654;2023-02-11T07:43:33;36.67;;;19.37;;
16199;SDS011;8207;52.494;4.654;2023-02-11T07:46:01;33.10;;;17.97;;
16199;SDS011;8207;52.494;4.654;2023-02-11T07:48:30;37.10;;;21.13;;
16199;SDS011;8207;52.494;4.654;2023-02-11T07:51:03;39.53;;;20.43;;
16199;SDS011;8207;52.494;4.654;2023-02-11T07:53:40;37.50;;;19.83;;
16199;SDS011;8207;52.494;4.654;2023-02-11T07:56:08;37.40;;;19.47;;
16199;SDS011;8207;52.494;4.654;2023-02-11T08:02:10;34.37;;;19.30;;
16199;SDS011;8207;52.494;4.654;2023-02-11T08:04:38;39.53;;;19.73;;
16199;SDS011;8207;52.494;4.654;2023-02-11T08:07:05;41.50;;;21.83;;
16199;SDS011;8207;52.494;4.654;2023-02-11T08:09:32;34.20;;;18.90;;
16199;SDS011;8207;52.494;4.654;2023-02-11T08:11:59;35.57;;;18.47;;
16199;SDS011;8207;52.494;4.654;2023-02-11T08:14:26;33.47;;;19.03;;
16199;SDS011;8207;52.494;4.654;2023-02-11T08:16:54;34.97;;;19.27;;
16199;SDS011;8207;52.494;4.654;2023-02-11T08:19:21;32.20;;;19.53;;
16199;SDS011;8207;52.494;4.654;2023-02-11T08:21:50;33.23;;;18.17;;
16199;SDS011;8207;52.494;4.654;2023-02-11T08:24:20;36.33;;;18.80;;
16199;SDS011;8207;52.494;4.654;2023-02-11T08:26:47;30.83;;;17.10;;
16199;SDS011;8207;52.494;4.654;2023-02-11T08:29:15;36.13;;;18.03;;
16199;SDS011;8207;52.494;4.654;2023-02-11T08:31:43;30.13;;;18.33;;
16199;SDS011;8207;52.494;4.654;2023-02-11T08:34:12;37.13;;;19.07;;
16199;SDS011;8207;52.494;4.654;2023-02-11T08:36:42;36.33;;;18.13;;
16199;SDS011;8207;52.494;4.654;2023-02-11T08:39:12;27.90;;;16.47;;
16199;SDS011;8207;52.494;4.654;2023-02-11T08:41:40;31.40;;;17.03;;
16199;SDS011;8207;52.494;4.654;2023-02-11T08:44:07;27.17;;;16.47;;
16199;SDS011;8207;52.494;4.654;2023-02-11T08:46:34;29.77;;;16.30;;
16199;SDS011;8207;52.494;4.654;2023-02-11T08:49:01;34.20;;;19.30;;
16199;SDS011;8207;52.494;4.654;2023-02-11T08:51:28;35.30;;;18.40;;
16199;SDS011;8207;52.494;4.654;2023-02-11T08:53:55;26.47;;;16.60;;
16199;SDS011;8207;52.494;4.654;2023-02-11T08:56:24;25.27;;;15.93;;
16199;SDS011;8207;52.494;4.654;2023-02-11T08:58:52;31.80;;;17.63;;
16199;SDS011;8207;52.494;4.654;2023-02-11T09:01:20;30.77;;;17.07;;
16199;SDS011;8207;52.494;4.654;2023-02-11T09:03:49;33.60;;;17.13;;
16199;SDS011;8207;52.494;4.654;2023-02-11T09:06:17;26.40;;;16.03;;
16199;SDS011;8207;52.494;4.654;2023-02-11T09:08:44;33.97;;;17.07;;
16199;SDS011;8207;52.494;4.654;2023-02-11T09:11:13;30.07;;;16.23;;
16199;SDS011;8207;52.494;4.654;2023-02-11T09:13:43;27.73;;;15.30;;
16199;SDS011;8207;52.494;4.654;2023-02-11T09:16:14;24.73;;;15.13;;
16199;SDS011;8207;52.494;4.654;2023-02-11T09:18:43;24.43;;;15.40;;
16199;SDS011;8207;52.494;4.654;2023-02-11T09:21:10;31.40;;;16.00;;
16199;SDS011;8207;52.494;4.654;2023-02-11T09:23:37;23.57;;;14.57;;
16199;SDS011;8207;52.494;4.654;2023-02-11T09:26:08;25.07;;;15.73;;
16199;SDS011;8207;52.494;4.654;2023-02-11T09:28:38;24.37;;;14.57;;
16199;SDS011;8207;52.494;4.654;2023-02-11T09:31:06;25.73;;;14.80;;
16199;SDS011;8207;52.494;4.654;2023-02-11T09:33:35;24.80;;;14.83;;
16199;SDS011;8207;52.494;4.654;2023-02-11T09:36:03;21.37;;;14.03;;
16199;SDS011;8207;52.494;4.654;2023-02-11T09:38:31;25.17;;;16.40;;
16199;SDS011;8207;52.494;4.654;2023-02-11T09:40:58;24.10;;;14.93;;
16199;SDS011;8207;52.494;4.654;2023-02-11T09:43:30;31.83;;;18.27;;
16199;SDS011;8207;52.494;4.654;2023-02-11T09:46:01;25.53;;;17.50;;
16199;SDS011;8207;52.494;4.654;2023-02-11T09:48:31;27.23;;;15.50;;
16199;SDS011;8207;52.494;4.654;2023-02-11T09:51:10;32.63;;;16.10;;
16199;SDS011;8207;52.494;4.654;2023-02-11T09:53:44;27.80;;;15.20;;
16199;SDS011;8207;52.494;4.654;2023-02-11T09:56:11;30.13;;;16.60;;
16199;SDS011;8207;52.494;4.654;2023-02-11T09:58:40;29.97;;;14.63;;
16199;SDS011;8207;52.494;4.654;2023-02-11T10:01:11;28.47;;;14.20;;
16199;SDS011;8207;52.494;4.654;2023-02-11T10:06:40;25.77;;;15.27;;
16199;SDS011;8207;52.494;4.654;2023-02-11T10:09:17;22.37;;;13.73;;
16199;SDS011;8207;52.494;4.654;2023-02-11T10:11:57;24.33;;;14.93;;
16199;SDS011;8207;52.494;4.654;2023-02-11T10:14:46;30.77;;;14.63;;
16199;SDS011;8207;52.494;4.654;2023-02-11T10:17:30;32.23;;;16.93;;
16199;SDS011;8207;52.494;4.654;2023-02-11T10:20:10;34.93;;;16.63;;
16199;SDS011;8207;52.494;4.654;2023-02-11T10:22:47;27.47;;;16.67;;
16199;SDS011;8207;52.494;4.654;2023-02-11T10:25:20;24.43;;;16.53;;
16199;SDS011;8207;52.494;4.654;2023-02-11T10:27:48;25.87;;;16.73;;
16199;SDS011;8207;52.494;4.654;2023-02-11T10:30:21;26.43;;;16.77;;
16199;SDS011;8207;52.494;4.654;2023-02-11T10:32:55;32.37;;;16.20;;
16199;SDS011;8207;52.494;4.654;2023-02-11T10:35:27;26.77;;;16.20;;
16199;SDS011;8207;52.494;4.654;2023-02-11T10:37:54;27.77;;;16.90;;
16199;SDS011;8207;52.494;4.654;2023-02-11T10:40:22;25.77;;;16.80;;
16199;SDS011;8207;52.494;4.654;2023-02-11T10:42:51;29.27;;;16.77;;
16199;SDS011;8207;52.494;4.654;2023-02-11T10:45:22;28.30;;;17.97;;
16199;SDS011;8207;52.494;4.654;2023-02-11T10:47:53;25.73;;;16.33;;
16199;SDS011;8207;52.494;4.654;2023-02-11T10:50:22;29.57;;;16.23;;
16199;SDS011;8207;52.494;4.654;2023-02-11T10:52:52;25.83;;;15.73;;
16199;SDS011;8207;52.494;4.654;2023-02-11T10:55:50;25.07;;;16.20;;
16199;SDS011;8207;52.494;4.654;2023-02-11T10:58:22;27.77;;;15.60;;
16199;SDS011;8207;52.494;4.654;2023-02-11T11:00:52;27.07;;;16.63;;
16199;SDS011;8207;52.494;4.654;2023-02-11T11:03:21;26.47;;;16.53;;
16199;SDS011;8207;52.494;4.654;2023-02-11T11:05:50;24.03;;;16.20;;
16199;SDS011;8207;52.494;4.654;2023-02-11T11:08:19;28.13;;;15.13;;
16199;SDS011;8207;52.494;4.654;2023-02-11T11:10:47;25.93;;;16.07;;
16199;SDS011;8207;52.494;4.654;2023-02-11T11:13:23;26.37;;;14.93;;
16199;SDS011;8207;52.494;4.654;2023-02-11T11:16:06;24.23;;;14.27;;
16199;SDS011;8207;52.494;4.654;2023-02-11T11:18:40;24.30;;;14.67;;
16199;SDS011;8207;52.494;4.654;2023-02-11T11:21:11;22.83;;;15.23;;
16199;SDS011;8207;52.494;4.654;2023-02-11T11:23:45;19.50;;;14.47;;
16199;SDS011;8207;52.494;4.654;2023-02-11T11:26:14;20.53;;;14.27;;
16199;SDS011;8207;52.494;4.654;2023-02-11T11:28:49;26.17;;;14.67;;
16199;SDS011;8207;52.494;4.654;2023-02-11T11:31:20;24.43;;;14.53;;
16199;SDS011;8207;52.494;4.654;2023-02-11T11:33:50;23.70;;;13.87;;
16199;SDS011;8207;52.494;4.654;2023-02-11T11:36:20;21.40;;;14.33;;
16199;SDS011;8207;52.494;4.654;2023-02-11T11:38:51;26.67;;;14.20;;
16199;SDS011;8207;52.494;4.654;2023-02-11T11:41:23;26.17;;;13.43;;
16199;SDS011;8207;52.494;4.654;2023-02-11T11:43:59;22.43;;;14.47;;
16199;SDS011;8207;52.494;4.654;2023-02-11T11:46:29;26.37;;;14.07;;
16199;SDS011;8207;52.494;4.654;2023-02-11T11:49:12;21.37;;;12.60;;
16199;SDS011;8207;52.494;4.654;2023-02-11T11:51:53;18.33;;;13.07;;
16199;SDS011;8207;52.494;4.654;2023-02-11T11:54:38;20.33;;;12.47;;
16199;SDS011;8207;52.494;4.654;2023-02-11T11:57:09;18.07;;;12.03;;
16199;SDS011;8207;52.494;4.654;2023-02-11T11:59:40;22.90;;;13.33;;
16199;SDS011;8207;52.494;4.654;2023-02-11T12:02:12;21.20;;;13.77;;
16199;SDS011;8207;52.494;4.654;2023-02-11T12:05:00;24.97;;;12.87;;
16199;SDS011;8207;52.494;4.654;2023-02-11T12:07:40;22.33;;;12.87;;
16199;SDS011;8207;52.494;4.654;2023-02-11T12:10:32;24.73;;;12.73;;
16199;SDS011;8207;52.494;4.654;2023-02-11T12:13:22;20.63;;;11.77;;
16199;SDS011;8207;52.494;4.654;2023-02-11T12:15:59;25.53;;;13.90;;
16199;SDS011;8207;52.494;4.654;2023-02-11T12:18:44;20.30;;;12.20;;
16199;SDS011;8207;52.494;4.654;2023-02-11T12:21:27;17.17;;;10.77;;
16199;SDS011;8207;52.494;4.654;2023-02-11T12:24:05;16.83;;;11.17;;
16199;SDS011;8207;52.494;4.654;2023-02-11T12:26:46;17.93;;;11.27;;
16199;SDS011;8207;52.494;4.654;2023-02-11T12:29:23;19.47;;;12.40;;
16199;SDS011;8207;52.494;4.654;2023-02-11T12:32:04;20.87;;;11.57;;
16199;SDS011;8207;52.494;4.654;2023-02-11T12:37:39;12.23;;;8.27;;
16199;SDS011;8207;52.494;4.654;2023-02-11T12:40:16;13.63;;;8.60;;
16199;SDS011;8207;52.494;4.654;2023-02-11T12:42:53;16.30;;;9.37;;
16199;SDS011;8207;52.494;4.654;2023-02-11T12:48:35;12.07;;;8.23;;
16199;SDS011;8207;52.494;4.654;2023-02-11T12:51:15;12.67;;;8.07;;
16199;SDS011;8207;52.494;4.654;2023-02-11T12:53:54;12.07;;;7.73;;
16199;SDS011;8207;52.494;4.654;2023-02-11T12:56:39;17.00;;;9.00;;
16199;SDS011;8207;52.494;4.654;2023-02-11T12:59:13;11.90;;;7.93;;
16199;SDS011;8207;52.494;4.654;2023-02-11T13:01:55;10.70;;;7.53;;
16199;SDS011;8207;52.494;4.654;2023-02-11T13:04:26;10.93;;;7.20;;
16199;SDS011;8207;52.494;4.654;2023-02-11T13:06:59;11.43;;;7.30;;
16199;SDS011;8207;52.494;4.654;2023-02-11T13:09:33;20.07;;;8.43;;
16199;SDS011;8207;52.494;4.654;2023-02-11T13:12:08;14.90;;;8.07;;
16199;SDS011;8207;52.494;4.654;2023-02-11T13:14:58;12.90;;;7.67;;
16199;SDS011;8207;52.494;4.654;2023-02-11T13:17:32;13.53;;;7.50;;
16199;SDS011;8207;52.494;4.654;2023-02-11T13:20:12;11.33;;;7.23;;
16199;SDS011;8207;52.494;4.654;2023-02-11T13:22:46;13.23;;;7.27;;
16199;SDS011;8207;52.494;4.654;2023-02-11T13:25:21;13.30;;;8.53;;
16199;SDS011;8207;52.494;4.654;2023-02-11T13:27:58;14.83;;;8.50;;
16199;SDS011;8207;52.494;4.654;2023-02-11T13:30:35;17.27;;;9.40;;
16199;SDS011;8207;52.494;4.654;2023-02-11T13:33:18;12.13;;;6.83;;
16199;SDS011;8207;52.494;4.654;2023-02-11T13:35:47;15.53;;;7.90;;
16199;SDS011;8207;52.494;4.654;2023-02-11T13:38:35;15.40;;;7.90;;
16199;SDS011;8207;52.494;4.654;2023-02-11T13:41:03;13.20;;;6.37;;
16199;SDS011;8207;52.494;4.654;2023-02-11T13:43:32;15.20;;;6.83;;
16199;SDS011;8207;52.494;4.654;2023-02-11T13:46:03;11.73;;;6.20;;
16199;SDS011;8207;52.494;4.654;2023-02-11T13:48:32;8.57;;;6.20;;
16199;SDS011;8207;52.494;4.654;2023-02-11T13:51:02;13.00;;;6.97;;
16199;SDS011;8207;52.494;4.654;2023-02-11T13:53:41;12.13;;;6.77;;
16199;SDS011;8207;52.494;4.654;2023-02-11T13:56:21;15.13;;;7.47;;
16199;SDS011;8207;52.494;4.654;2023-02-11T13:58:56;16.07;;;7.73;;
16199;SDS011;8207;52.494;4.654;2023-02-11T14:02:00;13.00;;;7.10;;
16199;SDS011;8207;52.494;4.654;2023-02-11T14:05:00;13.87;;;6.30;;
16199;SDS011;8207;52.494;4.654;2023-02-11T14:08:23;11.37;;;6.50;;
16199;SDS011;8207;52.494;4.654;2023-02-11T14:11:09;11.57;;;7.23;;
16199;SDS011;8207;52.494;4.654;2023-02-11T14:14:01;14.87;;;9.53;;
16199;SDS011;8207;52.494;4.654;2023-02-11T14:19:48;16.73;;;10.37;;
16199;SDS011;8207;52.494;4.654;2023-02-11T14:22:16;16.47;;;8.63;;
16199;SDS011;8207;52.494;4.654;2023-02-11T14:24:49;15.53;;;9.03;;
16199;SDS011;8207;52.494;4.654;2023-02-11T14:27:26;14.17;;;9.10;;
16199;SDS011;8207;52.494;4.654;2023-02-11T14:30:00;18.47;;;8.43;;
16199;SDS011;8207;52.494;4.654;2023-02-11T14:32:52;15.43;;;8.20;;
16199;SDS011;8207;52.494;4.654;2023-02-11T14:35:50;10.13;;;7.00;;
16199;SDS011;8207;52.494;4.654;2023-02-11T14:38:30;10.70;;;6.20;;
16199;SDS011;8207;52.494;4.654;2023-02-11T14:41:06;16.20;;;7.70;;
16199;SDS011;8207;52.494;4.654;2023-02-11T14:43:37;16.50;;;8.20;;
16199;SDS011;8207;52.494;4.654;2023-02-11T14:46:08;16.33;;;9.20;;
16199;SDS011;8207;52.494;4.654;2023-02-11T14:48:36;15.37;;;8.87;;
16199;SDS011;8207;52.494;4.654;2023-02-11T14:51:07;14.00;;;8.93;;
16199;SDS011;8207;52.494;4.654;2023-02-11T14:53:39;21.07;;;9.00;;
16199;SDS011;8207;52.494;4.654;2023-02-11T14:56:15;15.77;;;8.90;;
16199;SDS011;8207;52.494;4.654;2023-02-11T14:58:47;11.73;;;6.97;;
16199;SDS011;8207;52.494;4.654;2023-02-11T15:01:22;13.93;;;7.10;;
16199;SDS011;8207;52.494;4.654;2023-02-11T15:03:52;10.93;;;6.23;;
16199;SDS011;8207;52.494;4.654;2023-02-11T15:06:22;10.90;;;6.73;;
16199;SDS011;8207;52.494;4.654;2023-02-11T15:08:52;11.23;;;6.50;;
16199;SDS011;8207;52.494;4.654;2023-02-11T15:11:21;9.07;;;6.37;;
16199;SDS011;8207;52.494;4.654;2023-02-11T15:13:49;9.97;;;5.90;;
16199;SDS011;8207;52.494;4.654;2023-02-11T15:16:19;14.43;;;6.33;;
16199;SDS011;8207;52.494;4.654;2023-02-11T15:18:49;9.23;;;5.60;;
16199;SDS011;8207;52.494;4.654;2023-02-11T15:21:19;12.03;;;6.07;;